Time;durP1;ratioP1;P1;durP2;ratioP2;P2;SDS_P1;SDS_P2;PMS_P1;PMS_P2;Temp;Humidity;BMP_temperature;BMP_pressure;BME280_temperature;BME280_humidity;BME280_pressure;Samples;Min_cycle;Max_cycle;Signal;HPM_P1;HPM_P2
2022/06/29 00:02:05;;;;;;;4.60;3.95;;;;;;;18.32;61.87;94211.25;4968755;28;20303;-75
2022/06/29 00:04:31;;;;;;;6.07;3.97;;;;;;;18.27;62.20;94206.13;4971052;28;20026;-76
2022/06/29 00:06:56;;;;;;;6.28;3.53;;;;;;;17.99;62.67;94163.22;4968395;28;20453;-76
2022/06/29 00:09:21;;;;;;;5.32;4.25;;;;;;;18.37;62.40;94221.75;4970982;28;20030;-76
2022/06/29 00:11:47;;;;;;;5.03;4.18;;;;;;;18.45;62.42;94239.59;4970320;28;20054;-76
2022/06/29 00:14:12;;;;;;;8.00;4.25;;;;;;;18.34;62.69;94230.50;4967345;28;20037;-76
2022/06/29 00:16:38;;;;;;;3.60;3.10;;;;;;;18.33;61.69;94216.25;4967844;28;20038;-76
2022/06/29 00:19:03;;;;;;;5.60;3.22;;;;;;;18.31;61.28;94218.53;4970976;28;20085;-75
2022/06/29 00:21:29;;;;;;;3.95;3.55;;;;;;;18.22;61.63;94198.31;4969155;28;20042;-75
2022/06/29 00:23:54;;;;;;;3.92;3.53;;;;;;;18.27;62.00;94206.91;4970790;28;20054;-76
2022/06/29 00:26:19;;;;;;;4.28;3.55;;;;;;;18.27;61.99;94195.34;4970930;28;20489;-76
2022/06/29 00:28:45;;;;;;;3.95;2.90;;;;;;;18.41;61.41;94225.28;4969449;28;20069;-76
2022/06/29 00:31:10;;;;;;;5.50;3.83;;;;;;;18.32;61.85;94203.16;4968860;28;20535;-76
2022/06/29 00:33:36;;;;;;;4.55;3.78;;;;;;;18.43;61.88;94223.03;4969318;28;20038;-76
2022/06/29 00:36:01;;;;;;;6.30;3.95;;;;;;;18.29;62.04;94211.94;4968526;28;20117;-76
2022/06/29 00:38:26;;;;;;;4.97;4.47;;;;;;;18.41;62.49;94218.00;4970795;28;20209;-76
2022/06/29 00:40:52;;;;;;;5.90;3.83;;;;;;;18.44;62.20;94211.09;4970040;28;20542;-76
2022/06/29 00:43:17;;;;;;;4.60;3.28;;;;;;;18.36;62.64;94206.72;4968061;28;20034;-76
2022/06/29 00:45:42;;;;;;;6.65;4.05;;;;;;;18.39;62.38;94214.06;4968930;28;20081;-76
2022/06/29 00:48:08;;;;;;;4.95;4.22;;;;;;;18.10;62.20;94156.16;4970875;28;20467;-76
2022/06/29 00:50:36;;;;;;;4.95;3.47;;;;;;;18.44;62.55;94205.72;4968637;28;20497;-76
2022/06/29 00:53:05;;;;;;;9.23;4.70;;;;;;;18.50;62.27;94209.69;4974053;28;20372;-76
2022/06/29 00:55:35;;;;;;;5.15;3.63;;;;;;;18.51;62.15;94203.19;4972567;28;20608;-75
2022/06/29 00:58:05;;;;;;;5.45;3.67;;;;;;;18.50;62.23;94209.69;4975754;28;20042;-77
2022/06/29 01:00:34;;;;;;;5.05;3.80;;;;;;;18.54;62.05;94205.16;4975221;28;20077;-76
2022/06/29 01:03:00;;;;;;;9.52;4.07;;;;;;;18.34;62.08;94185.50;4973387;28;20030;-75
2022/06/29 01:05:27;;;;;;;6.05;4.05;;;;;;;18.37;62.04;94198.28;4972953;28;20089;-78
2022/06/29 01:07:52;;;;;;;7.38;4.00;;;;;;;18.27;62.18;94189.97;4974742;28;20037;-77
2022/06/29 01:10:21;;;;;;;4.35;3.58;;;;;;;18.11;62.10;94176.56;4973264;28;20038;-75
2022/06/29 01:12:51;;;;;;;4.95;3.47;;;;;;;18.11;62.20;94186.53;4972196;28;20034;-77
2022/06/29 01:15:17;;;;;;;6.68;4.80;;;;;;;17.90;62.30;94149.91;4973702;28;20055;-75
2022/06/29 01:17:43;;;;;;;6.93;5.20;;;;;;;18.12;63.04;94180.03;4975398;28;20032;-78
2022/06/29 01:20:10;;;;;;;6.93;4.53;;;;;;;18.20;63.11;94189.81;4975402;28;20026;-77
2022/06/29 01:22:36;;;;;;;5.78;4.45;;;;;;;18.15;63.17;94182.00;4970696;28;20040;-77
2022/06/29 01:25:01;;;;;;;6.00;4.22;;;;;;;18.24;62.95;94174.50;4972876;28;20043;-77
2022/06/29 01:27:26;;;;;;;5.47;4.38;;;;;;;18.19;62.74;94166.72;4971049;28;20035;-77
2022/06/29 01:29:52;;;;;;;4.35;3.72;;;;;;;18.31;62.70;94180.06;4973571;28;20034;-77
2022/06/29 01:32:19;;;;;;;3.78;3.30;;;;;;;18.21;62.44;94162.53;4973990;28;20050;-77
2022/06/29 01:34:44;;;;;;;4.10;3.30;;;;;;;18.26;62.29;94188.41;4973703;28;20034;-76
2022/06/29 01:37:10;;;;;;;4.60;3.95;;;;;;;18.16;62.18;94194.34;4972762;28;20042;-76
2022/06/29 01:39:36;;;;;;;5.60;3.90;;;;;;;18.18;62.25;94192.09;4978513;28;20042;-77
2022/06/29 01:42:04;;;;;;;4.15;3.67;;;;;;;18.12;62.61;94191.56;4973104;28;20052;-77
2022/06/29 01:44:29;;;;;;;6.03;4.20;;;;;;;18.16;62.66;94194.34;4973079;28;20085;-77
2022/06/29 01:46:54;;;;;;;6.85;4.57;;;;;;;18.04;62.52;94166.41;4972394;28;20874;-78
2022/06/29 01:49:20;;;;;;;4.82;3.67;;;;;;;18.07;62.22;94181.09;4970654;28;20132;-77
2022/06/29 01:51:45;;;;;;;3.58;3.15;;;;;;;17.70;62.17;94132.16;4971287;28;20197;-77
2022/06/29 01:54:11;;;;;;;4.05;3.35;;;;;;;18.03;62.25;94181.00;4970136;28;20046;-77
2022/06/29 01:56:37;;;;;;;5.78;3.63;;;;;;;18.09;62.92;94188.81;4973203;28;20346;-76
2022/06/29 01:59:02;;;;;;;4.43;4.00;;;;;;;17.93;62.94;94151.97;4975017;28;20620;-77
2022/06/29 02:01:28;;;;;;;6.60;3.25;;;;;;;18.02;62.82;94165.22;4971465;28;20395;-76
2022/06/29 02:03:53;;;;;;;7.95;4.22;;;;;;;17.96;62.69;94151.25;4970186;28;20038;-77
2022/06/29 02:06:19;;;;;;;5.45;4.13;;;;;;;18.12;62.75;94174.66;4971278;28;20414;-77
2022/06/29 02:08:45;;;;;;;5.57;4.35;;;;;;;18.02;62.65;94157.91;4973654;28;20101;-77
2022/06/29 02:11:10;;;;;;;4.70;3.83;;;;;;;18.09;62.55;94161.91;4967524;28;20446;-77
2022/06/29 02:13:36;;;;;;;4.25;3.10;;;;;;;18.07;62.41;94158.78;4971227;28;20038;-77
2022/06/29 02:16:04;;;;;;;4.10;3.40;;;;;;;18.02;63.09;94163.31;4972407;28;20054;-77
2022/06/29 02:18:29;;;;;;;4.85;4.07;;;;;;;17.86;62.80;94130.22;4974787;28;20110;-77
2022/06/29 02:20:55;;;;;;;5.30;3.75;;;;;;;18.08;62.91;94163.03;4969367;28;20042;-76
2022/06/29 02:23:20;;;;;;;4.22;3.80;;;;;;;17.97;62.87;94155.50;4972920;28;20501;-77
2022/06/29 02:25:47;;;;;;;4.47;3.78;;;;;;;18.04;62.32;94161.03;4969224;28;20045;-78
2022/06/29 02:28:12;;;;;;;4.68;3.25;;;;;;;18.07;61.95;94161.47;4972057;28;20267;-76
2022/06/29 02:36:06;;;;;;;3.45;3.03;;;;;;;17.87;62.55;94145.25;4972647;28;20775;-77
2022/06/29 02:38:31;;;;;;;4.70;3.38;;;;;;;17.86;62.45;94138.31;4971944;28;20042;-78
2022/06/29 02:40:56;;;;;;;7.10;3.10;;;;;;;17.89;62.12;94147.59;4972731;28;20026;-77
2022/06/29 02:43:22;;;;;;;4.28;3.38;;;;;;;17.76;62.40;94132.69;4972458;28;20753;-77
2022/06/29 02:45:47;;;;;;;3.58;3.22;;;;;;;17.94;62.46;94144.66;4971939;28;20109;-76
2022/06/29 02:48:13;;;;;;;6.40;3.40;;;;;;;17.96;61.96;94148.56;4974005;28;20044;-77
2022/06/29 02:50:38;;;;;;;3.95;3.28;;;;;;;17.90;61.88;94135.69;4970220;28;20081;-77
2022/06/29 02:53:04;;;;;;;4.20;3.40;;;;;;;17.78;61.87;94125.84;4973754;28;20069;-77
2022/06/29 02:55:29;;;;;;;3.75;3.35;;;;;;;17.84;61.83;94139.78;4973243;28;20038;-76
2022/06/29 02:57:54;;;;;;;4.05;3.58;;;;;;;17.73;62.39;94117.25;4972850;28;20038;-76
2022/06/29 03:00:20;;;;;;;4.15;3.25;;;;;;;17.66;62.96;94115.16;4972999;28;20482;-76
2022/06/29 03:02:45;;;;;;;4.80;3.60;;;;;;;17.86;62.88;94142.91;4971692;28;20565;-77
2022/06/29 03:05:11;;;;;;;3.90;2.92;;;;;;;17.78;62.25;94135.81;4973448;28;20581;-76
2022/06/29 03:07:36;;;;;;;4.72;3.60;;;;;;;17.71;62.52;94141.78;4971604;28;20035;-78
2022/06/29 03:10:05;;;;;;;5.30;3.13;;;;;;;17.71;62.71;94122.97;4972340;28;20050;-78
2022/06/29 03:12:30;;;;;;;4.20;3.63;;;;;;;17.71;62.88;94128.34;4972045;28;20220;-77
2022/06/29 03:14:55;;;;;;;4.32;3.45;;;;;;;17.67;62.88;94132.88;4971357;28;20038;-76
2022/06/29 03:17:21;;;;;;;4.97;4.05;;;;;;;17.68;63.05;94129.06;4970818;28;20515;-77
2022/06/29 03:19:46;;;;;;;3.50;3.17;;;;;;;17.68;63.01;94130.97;4971163;28;20187;-77
2022/06/29 03:22:12;;;;;;;3.45;3.15;;;;;;;17.69;62.92;94136.00;4968979;28;20529;-78
2022/06/29 03:24:38;;;;;;;4.43;3.63;;;;;;;17.74;63.17;94129.56;4970418;28;20427;-76
2022/06/29 03:27:04;;;;;;;5.20;4.03;;;;;;;17.86;63.58;94148.28;4971269;28;20046;-77
2022/06/29 03:29:29;;;;;;;5.97;4.55;;;;;;;17.87;63.53;94139.88;4971665;28;20565;-77
2022/06/29 03:31:55;;;;;;;5.55;4.13;;;;;;;17.87;63.66;94150.63;4971008;28;20405;-77
2022/06/29 03:34:20;;;;;;;4.32;3.92;;;;;;;17.83;64.19;94132.84;4970939;28;20086;-77
2022/06/29 03:36:45;;;;;;;4.25;3.70;;;;;;;17.58;64.16;94094.63;4971300;28;20056;-76
2022/06/29 03:39:11;;;;;;;4.32;3.55;;;;;;;17.70;63.96;94118.72;4971966;28;20661;-77
2022/06/29 03:41:36;;;;;;;4.45;4.00;;;;;;;17.95;64.23;94152.38;4970913;28;21181;-75
2022/06/29 03:44:02;;;;;;;7.00;4.13;;;;;;;18.01;64.04;94142.91;4972181;28;20033;-75
2022/06/29 03:46:27;;;;;;;10.68;6.25;;;;;;;18.08;64.45;94133.41;4969353;28;20039;-75
2022/06/29 03:48:53;;;;;;;8.02;5.88;;;;;;;18.13;64.77;94125.06;4971999;28;20050;-75
2022/06/29 03:51:18;;;;;;;9.15;5.88;;;;;;;18.18;64.48;94122.09;4971221;28;20031;-75
2022/06/29 03:53:43;;;;;;;8.68;6.97;;;;;;;18.32;64.57;94135.84;4972512;28;20023;-77
2022/06/29 03:56:09;;;;;;;8.02;6.70;;;;;;;18.16;65.35;94135.13;4969634;28;20014;-76
2022/06/29 03:58:34;;;;;;;8.07;6.60;;;;;;;17.90;66.01;94125.69;4970452;28;20031;-75
2022/06/29 04:01:00;;;;;;;11.32;7.60;;;;;;;17.91;65.88;94124.56;4969070;28;20042;-76
2022/06/29 04:03:25;;;;;;;6.63;6.00;;;;;;;18.09;65.61;94113.47;4970963;28;20581;-75
2022/06/29 04:05:50;;;;;;;8.23;6.32;;;;;;;18.31;65.59;94132.38;4970489;28;20049;-76
2022/06/29 04:08:17;;;;;;;8.25;6.15;;;;;;;18.33;65.58;94121.25;4969583;28;20081;-75
2022/06/29 04:10:43;;;;;;;7.30;6.32;;;;;;;18.16;65.54;94097.44;4969853;28;21088;-76
2022/06/29 04:13:08;;;;;;;8.20;6.25;;;;;;;18.33;65.46;94118.56;4970370;28;20034;-77
2022/06/29 04:15:34;;;;;;;7.20;5.82;;;;;;;18.32;65.22;94112.41;4969065;28;20030;-76
2022/06/29 04:18:00;;;;;;;11.85;7.28;;;;;;;18.07;65.69;94119.19;4970341;28;20640;-76
2022/06/29 04:23:10;;;;;;;10.43;6.85;;;;;;;18.48;65.94;94118.47;4971001;28;20211;-76
2022/06/29 04:25:35;;;;;;;10.70;6.93;;;;;;;18.47;65.97;94091.91;4968957;28;20035;-75
2022/06/29 04:28:01;;;;;;;10.70;7.28;;;;;;;18.43;65.66;94089.13;4971146;28;20040;-75
2022/06/29 04:30:26;;;;;;;8.60;6.15;;;;;;;18.50;65.69;94096.59;4970425;28;20034;-75
2022/06/29 04:32:52;;;;;;;8.88;6.22;;;;;;;18.62;65.19;94103.75;4969518;28;20030;-76
2022/06/29 04:35:17;;;;;;;16.10;8.40;;;;;;;18.72;65.58;94116.66;4971551;28;20181;-75
2022/06/29 04:37:42;;;;;;;14.07;7.90;;;;;;;18.72;66.06;94113.97;4970537;28;20129;-76
2022/06/29 04:40:08;;;;;;;9.73;6.60;;;;;;;18.88;66.07;94112.72;4970706;28;20096;-76
2022/06/29 04:42:34;;;;;;;10.70;7.13;;;;;;;18.78;66.13;94086.34;4973951;28;20631;-76
2022/06/29 04:44:59;;;;;;;11.32;8.30;;;;;;;18.93;66.15;94108.16;4971411;28;20047;-76
2022/06/29 04:47:26;;;;;;;9.98;7.18;;;;;;;18.84;66.25;94114.56;4970107;28;20050;-76
2022/06/29 04:49:51;;;;;;;8.98;7.97;;;;;;;18.42;67.44;94100.28;4971245;28;20418;-75
2022/06/29 04:52:16;;;;;;;11.82;8.40;;;;;;;18.33;68.00;94116.63;4969163;28;20506;-76
2022/06/29 04:54:42;;;;;;;11.82;8.90;;;;;;;18.35;67.99;94116.28;4971230;28;20129;-76
2022/06/29 04:57:08;;;;;;;10.05;7.80;;;;;;;18.39;68.33;94126.00;4966930;28;20038;-77
2022/06/29 04:59:33;;;;;;;11.65;8.20;;;;;;;18.46;68.58;94118.06;4969362;28;20434;-76
2022/06/29 05:01:59;;;;;;;18.00;8.85;;;;;;;18.81;67.55;94136.84;4970162;28;20026;-76
2022/06/29 05:04:24;;;;;;;13.68;8.85;;;;;;;18.81;67.21;94144.94;4970724;28;20379;-77
2022/06/29 05:06:50;;;;;;;14.60;8.98;;;;;;;18.86;66.02;94131.19;4968128;28;20038;-76
2022/06/29 05:09:15;;;;;;;16.58;9.30;;;;;;;19.05;66.28;94132.25;4971064;28;20502;-75
2022/06/29 05:11:41;;;;;;;12.15;9.05;;;;;;;19.18;66.09;94131.72;4971178;28;20050;-76
2022/06/29 05:14:07;;;;;;;13.23;9.32;;;;;;;19.31;65.27;94119.59;4971281;28;20042;-76
2022/06/29 05:16:32;;;;;;;12.15;9.43;;;;;;;19.19;65.75;94119.81;4970190;28;20455;-76
2022/06/29 05:18:58;;;;;;;12.38;10.10;;;;;;;19.26;65.40;94132.63;4970757;28;20070;-76
2022/06/29 05:21:23;;;;;;;10.32;9.20;;;;;;;19.37;65.67;94116.59;4969603;28;20145;-76
2022/06/29 05:23:48;;;;;;;13.02;10.32;;;;;;;19.50;65.47;94136.91;4969261;28;20046;-77
2022/06/29 05:26:14;;;;;;;17.23;11.75;;;;;;;19.80;65.39;94134.28;4969706;28;20030;-76
2022/06/29 05:28:40;;;;;;;16.52;11.43;;;;;;;19.63;64.85;94128.25;4966457;28;20756;-76
2022/06/29 05:31:05;;;;;;;20.25;11.40;;;;;;;19.72;64.34;94131.47;4964761;28;20039;-76
2022/06/29 05:33:36;;;;;;;18.30;12.07;;;;;;;19.53;65.00;94128.88;4967240;28;20031;-76
2022/06/29 05:36:06;;;;;;;12.85;10.15;;;;;;;19.22;65.89;94099.41;4966323;28;20042;-76
2022/06/29 05:38:32;;;;;;;12.82;10.63;;;;;;;19.27;65.10;94134.97;4968085;28;20022;-77
2022/06/29 05:41:00;;;;;;;13.63;10.57;;;;;;;19.29;65.16;94131.91;4970722;28;20034;-76
2022/06/29 05:43:26;;;;;;;16.85;11.20;;;;;;;19.19;64.55;94135.19;4971592;28;20085;-76
2022/06/29 05:45:51;;;;;;;12.50;9.93;;;;;;;19.38;64.44;94120.88;4969413;28;20042;-76
2022/06/29 05:48:17;;;;;;;14.98;10.48;;;;;;;19.52;66.13;94140.78;4972148;28;20046;-76
2022/06/29 05:50:42;;;;;;;15.35;10.93;;;;;;;19.61;66.26;94133.22;4972251;28;20029;-76
2022/06/29 05:53:08;;;;;;;17.95;10.90;;;;;;;19.37;65.45;94147.06;4976129;28;20371;-76
2022/06/29 05:55:33;;;;;;;16.35;10.70;;;;;;;19.59;65.79;94159.81;4970541;28;20314;-76
2022/06/29 05:57:59;;;;;;;13.25;10.95;;;;;;;19.36;64.82;94148.19;4970992;28;20108;-76
2022/06/29 06:00:25;;;;;;;15.65;10.48;;;;;;;19.66;65.07;94135.63;4968466;28;20105;-76
2022/06/29 06:02:51;;;;;;;18.95;11.07;;;;;;;20.05;64.48;94157.00;4966830;28;20030;-77
2022/06/29 06:05:16;;;;;;;13.70;10.07;;;;;;;20.05;64.34;94152.38;4969919;28;20044;-77
2022/06/29 06:07:41;;;;;;;14.13;11.32;;;;;;;20.02;63.70;94152.34;4969140;28;20046;-77
2022/06/29 06:10:07;;;;;;;15.00;10.82;;;;;;;19.80;62.81;94128.88;4963996;28;20631;-77
2022/06/29 06:12:33;;;;;;;23.33;11.80;;;;;;;19.77;63.67;94151.19;4967021;28;20176;-77
2022/06/29 06:14:59;;;;;;;14.80;10.95;;;;;;;19.61;63.04;94108.94;4968450;28;20046;-76
2022/06/29 06:17:28;;;;;;;15.15;11.07;;;;;;;19.89;62.29;94164.50;4980264;28;20569;-76
2022/06/29 06:19:54;;;;;;;13.68;11.13;;;;;;;20.13;62.54;94142.47;4955345;28;20050;-76
2022/06/29 06:22:20;;;;;;;21.20;11.93;;;;;;;20.45;63.65;94153.72;4971971;28;20042;-76
2022/06/29 06:24:46;;;;;;;20.20;12.77;;;;;;;20.25;63.93;94123.34;4967153;28;20473;-77
2022/06/29 06:27:11;;;;;;;17.60;11.20;;;;;;;20.44;62.72;94131.31;4969090;28;20045;-76
2022/06/29 06:29:36;;;;;;;15.85;10.52;;;;;;;20.70;62.17;94138.56;4967896;28;20027;-76
2022/06/29 06:32:04;;;;;;;17.38;12.50;;;;;;;20.47;61.42;94140.63;4965556;28;20386;-76
2022/06/29 06:34:29;;;;;;;14.10;11.43;;;;;;;20.54;62.33;94114.44;4960862;28;20046;-77
2022/06/29 06:36:54;;;;;;;17.90;12.27;;;;;;;20.73;61.90;94120.84;4967650;28;20085;-77
2022/06/29 06:39:20;;;;;;;18.48;12.52;;;;;;;21.02;62.76;94145.13;4968583;28;20034;-76
2022/06/29 06:41:45;;;;;;;17.33;12.40;;;;;;;20.75;62.91;94140.16;4972161;28;20994;-76
2022/06/29 06:44:10;;;;;;;17.77;12.48;;;;;;;20.96;62.88;94116.09;4967906;28;20034;-76
2022/06/29 06:46:36;;;;;;;19.40;12.98;;;;;;;20.94;60.04;94118.38;4975552;28;20038;-77
2022/06/29 06:49:02;;;;;;;17.48;12.45;;;;;;;21.05;59.51;94132.03;4968200;28;20316;-76
2022/06/29 06:51:27;;;;;;;24.92;12.48;;;;;;;21.07;60.04;94132.44;4969691;28;20469;-76
2022/06/29 06:53:52;;;;;;;19.42;12.20;;;;;;;21.14;59.36;94135.97;4970483;28;20105;-76
2022/06/29 06:56:18;;;;;;;17.40;11.93;;;;;;;21.00;60.83;94125.03;4970883;28;20423;-76
2022/06/29 06:58:44;;;;;;;15.05;10.90;;;;;;;21.45;58.72;94127.38;4967644;28;20679;-76
2022/06/29 07:01:11;;;;;;;14.98;11.27;;;;;;;21.33;59.85;94116.84;4969744;28;20306;-76
2022/06/29 07:03:37;;;;;;;18.90;11.98;;;;;;;21.26;57.64;94116.00;4970231;28;20509;-76
2022/06/29 07:06:11;;;;;;;15.70;12.18;;;;;;;21.35;59.93;94114.53;4966711;28;20080;-76
2022/06/29 07:08:38;;;;;;;17.23;12.02;;;;;;;21.65;58.95;94127.97;4969313;28;20030;-76
2022/06/29 07:11:05;;;;;;;16.00;11.48;;;;;;;21.64;58.77;94126.41;4968645;28;20035;-76
2022/06/29 07:13:34;;;;;;;13.90;10.45;;;;;;;21.70;56.51;94113.28;4961948;28;20042;-75
2022/06/29 07:16:02;;;;;;;20.02;11.82;;;;;;;21.48;58.18;94133.19;4965019;28;20027;-76
2022/06/29 07:18:28;;;;;;;14.52;10.05;;;;;;;21.34;58.13;94131.13;4969397;28;20494;-76
2022/06/29 07:20:53;;;;;;;16.70;11.65;;;;;;;21.25;58.68;94131.47;4967613;28;20096;-76
2022/06/29 07:23:18;;;;;;;17.17;10.57;;;;;;;21.44;61.02;94131.22;4970757;28;20027;-76
2022/06/29 07:25:44;;;;;;;16.48;9.85;;;;;;;21.32;59.19;94104.44;4964523;28;20606;-77
2022/06/29 07:28:09;;;;;;;15.05;10.43;;;;;;;21.24;57.93;94108.25;4968837;28;20092;-76
2022/06/29 07:30:35;;;;;;;14.38;11.50;;;;;;;21.28;57.88;94097.47;4968636;28;21178;-77
2022/06/29 07:33:00;;;;;;;12.30;9.93;;;;;;;21.48;58.41;94109.59;4969555;28;20065;-76
2022/06/29 07:35:26;;;;;;;12.77;9.65;;;;;;;21.64;58.40;94117.50;4968158;28;20030;-77
2022/06/29 07:37:52;;;;;;;11.50;8.68;;;;;;;21.55;59.52;94079.94;4969381;28;20046;-77
2022/06/29 07:40:18;;;;;;;12.23;8.73;;;;;;;21.83;58.84;94111.81;4966721;28;20088;-76
2022/06/29 07:42:44;;;;;;;11.93;9.68;;;;;;;21.51;56.79;94111.56;4961870;28;20042;-77
2022/06/29 07:45:10;;;;;;;15.90;9.52;;;;;;;21.80;57.27;94118.00;4967010;28;20081;-77
2022/06/29 07:47:35;;;;;;;14.27;9.75;;;;;;;21.80;56.38;94109.88;4962239;28;20152;-76
2022/06/29 07:50:01;;;;;;;11.90;8.57;;;;;;;21.87;56.01;94101.78;4962607;28;20037;-77
2022/06/29 07:52:26;;;;;;;13.32;9.00;;;;;;;22.04;57.14;94103.84;4964672;28;20034;-76
2022/06/29 07:54:52;;;;;;;11.20;9.02;;;;;;;22.14;57.09;94105.06;4964352;28;20121;-76
2022/06/29 07:57:17;;;;;;;14.18;9.60;;;;;;;22.38;57.21;94114.50;4966681;28;20026;-76
2022/06/29 07:59:43;;;;;;;11.98;9.15;;;;;;;22.32;56.33;94107.88;4966397;28;20041;-76
2022/06/29 08:02:10;;;;;;;11.82;8.88;;;;;;;22.02;54.79;94103.44;4965343;28;20471;-77
2022/06/29 08:04:36;;;;;;;12.48;9.20;;;;;;;22.23;54.90;94098.16;4962952;28;20046;-76
2022/06/29 08:07:01;;;;;;;14.50;8.43;;;;;;;22.39;53.84;94088.94;4969347;28;20046;-76
2022/06/29 08:09:27;;;;;;;10.60;8.27;;;;;;;22.29;52.97;94091.22;4967984;28;20069;-76
2022/06/29 08:11:52;;;;;;;10.90;7.20;;;;;;;22.53;53.69;94116.88;4967554;28;20034;-76
2022/06/29 08:14:17;;;;;;;11.82;7.38;;;;;;;22.41;55.46;94109.06;4968571;28;20036;-77
2022/06/29 08:16:43;;;;;;;9.25;7.38;;;;;;;22.58;54.24;94115.75;4964867;28;20038;-76
2022/06/29 08:19:09;;;;;;;12.38;8.00;;;;;;;22.77;54.23;94103.78;4956126;28;20397;-77
2022/06/29 08:21:34;;;;;;;9.60;7.35;;;;;;;22.66;52.98;94109.16;4967162;28;20113;-76
2022/06/29 08:24:00;;;;;;;12.88;8.75;;;;;;;22.34;53.50;94102.88;4969720;28;20376;-76
2022/06/29 08:26:25;;;;;;;12.50;8.20;;;;;;;22.05;53.29;94091.06;4969952;28;20032;-76
2022/06/29 08:28:51;;;;;;;10.90;7.65;;;;;;;22.11;54.48;94103.09;4959904;28;20040;-76
2022/06/29 08:31:16;;;;;;;9.70;7.82;;;;;;;22.19;54.87;94097.31;4963747;28;20631;-77
2022/06/29 08:33:42;;;;;;;9.02;6.88;;;;;;;22.37;54.57;94126.47;4955450;28;20062;-78
2022/06/29 08:36:08;;;;;;;10.55;6.53;;;;;;;22.59;52.32;94117.28;4953543;28;20308;-76
2022/06/29 08:38:33;;;;;;;14.65;7.43;;;;;;;22.60;52.46;94116.13;4965451;28;20038;-77
2022/06/29 08:40:59;;;;;;;10.40;7.80;;;;;;;22.79;52.51;94117.72;4964920;28;20133;-76
2022/06/29 08:43:25;;;;;;;11.10;6.43;;;;;;;22.81;54.21;94097.22;4968929;28;20149;-77
2022/06/29 08:45:53;;;;;;;9.45;7.05;;;;;;;22.78;52.54;94111.53;4964889;28;20660;-77
2022/06/29 08:48:18;;;;;;;7.13;5.97;;;;;;;22.67;51.35;94111.50;4931420;28;20043;-76
2022/06/29 08:50:50;;;;;;;6.57;5.05;;;;;;;22.43;52.66;94097.88;4961155;28;20093;-75
2022/06/29 08:53:15;;;;;;;8.32;5.65;;;;;;;22.39;50.97;94116.78;4966106;28;20022;-75
2022/06/29 08:55:46;;;;;;;7.20;5.93;;;;;;;22.71;52.50;94122.34;4964216;28;20046;-76
2022/06/29 08:58:21;;;;;;;9.63;5.20;;;;;;;22.79;49.01;94113.06;4965330;28;20094;-75
2022/06/29 09:00:49;;;;;;;4.60;3.90;;;;;;;22.92;48.17;94121.69;4968658;28;20564;-75
2022/06/29 09:03:17;;;;;;;4.82;3.65;;;;;;;22.79;46.48;94101.44;4967708;28;20058;-75
2022/06/29 09:05:48;;;;;;;4.93;4.38;;;;;;;23.07;49.52;94115.88;4966569;28;20089;-75
2022/06/29 09:08:14;;;;;;;8.77;5.00;;;;;;;23.15;49.06;94092.25;4967931;28;20534;-75
2022/06/29 09:10:39;;;;;;;6.75;3.63;;;;;;;23.38;48.08;94108.94;4967203;28;20039;-75
2022/06/29 09:13:05;;;;;;;4.15;3.75;;;;;;;23.48;48.81;94097.31;4967453;28;20485;-75
2022/06/29 09:15:40;;;;;;;5.25;3.10;;;;;;;23.58;45.89;94109.38;4969836;28;20026;-76
2022/06/29 09:18:28;;;;;;;4.38;3.42;;;;;;;23.48;43.95;94104.69;4972439;28;20465;-75
2022/06/29 09:21:05;;;;;;;5.55;3.70;;;;;;;23.25;43.33;94109.72;4972553;28;20046;-75
2022/06/29 09:23:32;;;;;;;5.00;4.28;;;;;;;22.95;45.75;94059.31;4970073;28;20026;-75
2022/06/29 09:25:58;;;;;;;6.82;4.75;;;;;;;23.06;45.71;94084.50;4950646;28;20027;-75
2022/06/29 09:28:29;;;;;;;6.63;4.57;;;;;;;23.25;47.94;94096.16;4970840;28;20255;-76
2022/06/29 09:30:56;;;;;;;5.57;4.30;;;;;;;23.55;47.33;94108.22;5002722;28;20070;-75
2022/06/29 09:33:24;;;;;;;6.25;3.92;;;;;;;23.71;47.09;94110.53;4970217;28;20034;-75
2022/06/29 09:36:09;;;;;;;8.25;4.20;;;;;;;23.68;49.32;94105.88;4969831;28;20042;-76
2022/06/29 09:38:36;;;;;;;4.75;4.35;;;;;;;23.78;47.68;94104.31;4977718;28;20019;-75
2022/06/29 09:41:02;;;;;;;8.73;4.90;;;;;;;23.93;44.15;94103.13;4972721;28;20390;-74
2022/06/29 09:43:29;;;;;;;8.05;5.28;;;;;;;23.92;44.59;94101.56;4971807;28;20110;-76
2022/06/29 09:45:54;;;;;;;5.80;4.85;;;;;;;24.00;46.11;94098.44;4974280;28;20047;-75
2022/06/29 09:48:23;;;;;;;5.15;4.25;;;;;;;24.07;43.61;94096.88;4971302;28;20038;-75
2022/06/29 09:50:51;;;;;;;7.72;4.53;;;;;;;24.05;44.41;94096.53;4972145;28;20052;-75
2022/06/29 09:53:18;;;;;;;4.45;4.05;;;;;;;23.99;44.73;94096.94;4973310;28;20532;-75
2022/06/29 09:55:48;;;;;;;4.85;4.32;;;;;;;23.84;44.99;94067.47;4969726;28;20085;-75
2022/06/29 09:58:18;;;;;;;5.00;4.22;;;;;;;23.85;45.98;94091.50;4972950;28;20038;-75
2022/06/29 10:03:31;;;;;;;5.22;4.15;;;;;;;24.20;43.83;94079.78;4970601;28;20104;-76
2022/06/29 10:06:04;;;;;;;6.05;4.60;;;;;;;24.36;44.30;94088.28;4971094;28;20039;-75
2022/06/29 10:08:32;;;;;;;5.25;4.38;;;;;;;24.26;45.96;94077.44;4968029;28;20040;-76
2022/06/29 10:13:39;;;;;;;4.90;4.40;;;;;;;24.50;42.77;94092.91;4970221;28;20150;-75
2022/06/29 10:13:53;;;;;;;5.78;4.45;;;;;;;24.39;43.07;94086.75;4972307;28;20034;-75
2022/06/29 10:16:31;;;;;;;5.00;4.38;;;;;;;24.29;47.37;94088.34;4970971;28;20023;-76
2022/06/29 10:19:12;;;;;;;5.65;3.90;;;;;;;24.34;43.15;94079.78;4972146;28;20081;-75
2022/06/29 10:21:37;;;;;;;4.85;4.35;;;;;;;24.47;44.23;94088.25;4977329;28;20205;-75
2022/06/29 10:24:03;;;;;;;66.07;12.60;;;;;;;24.56;45.64;94080.44;4969160;28;20123;-75
2022/06/29 10:26:30;;;;;;;30.05;7.00;;;;;;;24.70;44.19;94080.38;4972378;28;20070;-75
2022/06/29 10:29:05;;;;;;;9.38;3.40;;;;;;;24.81;41.27;94075.69;4971087;28;20466;-76
2022/06/29 10:32:04;;;;;;;5.22;3.42;;;;;;;24.92;42.15;94077.56;4970661;28;20582;-75
2022/06/29 10:37:05;;;;;;;3.67;3.37;;;;;;;24.94;39.71;94078.72;4970156;28;20109;-75
2022/06/29 10:39:48;;;;;;;2.95;2.65;;;;;;;24.96;40.05;94078.31;4969893;28;20894;-75
2022/06/29 10:45:14;;;;;;;4.72;3.08;;;;;;;24.97;38.32;94060.84;4961371;28;20101;-75
2022/06/29 10:47:42;;;;;;;6.22;3.25;;;;;;;25.00;39.28;94049.16;4968343;28;20069;-75
2022/06/29 10:50:14;;;;;;;6.65;3.22;;;;;;;25.10;38.63;94064.63;4999821;28;20600;-75
2022/06/29 10:52:41;;;;;;;4.25;2.80;;;;;;;25.16;38.41;94063.81;4970720;28;20523;-76
2022/06/29 10:55:07;;;;;;;3.70;2.85;;;;;;;25.24;38.94;94059.06;4969065;28;20136;-76
2022/06/29 10:57:33;;;;;;;4.25;3.42;;;;;;;25.24;39.46;94059.06;4969428;28;20034;-75
2022/06/29 10:59:59;;;;;;;3.38;2.90;;;;;;;25.21;40.22;94065.34;4968972;28;20038;-75
2022/06/29 11:02:25;;;;;;;6.50;3.15;;;;;;;25.36;39.92;94066.81;4969497;28;20026;-75
2022/06/29 11:04:50;;;;;;;3.75;3.20;;;;;;;25.43;38.07;94057.78;4966767;28;20038;-75
2022/06/29 11:12:52;;;;;;;8.93;4.82;;;;;;;25.32;41.94;94054.41;4963323;28;20182;-77
2022/06/29 11:15:41;;;;;;;5.10;3.20;;;;;;;25.47;39.95;94045.69;4970687;28;20431;-75
2022/06/29 11:18:08;;;;;;;3.58;3.22;;;;;;;25.60;36.59;94044.03;4969659;28;20057;-75
2022/06/29 11:20:33;;;;;;;4.30;3.25;;;;;;;25.41;38.18;94006.47;4968161;28;20058;-75
2022/06/29 11:22:59;;;;;;;3.53;2.47;;;;;;;25.78;38.29;94032.19;4968609;28;20113;-75
2022/06/29 11:25:26;;;;;;;5.50;3.22;;;;;;;25.54;37.96;94029.31;4969036;28;20046;-74
2022/06/29 11:27:51;;;;;;;3.38;3.08;;;;;;;25.41;37.43;93992.88;4968401;28;20051;-74
2022/06/29 11:30:22;;;;;;;4.07;3.67;;;;;;;25.53;36.16;94008.69;4975985;28;20043;-75
2022/06/29 11:32:49;;;;;;;6.45;2.70;;;;;;;25.72;35.62;94026.41;5001846;28;20065;-74
2022/06/29 11:35:17;;;;;;;3.25;2.63;;;;;;;25.77;36.59;94030.63;4978882;28;20027;-74
2022/06/29 11:37:54;;;;;;;3.03;2.72;;;;;;;25.44;36.45;94030.16;4978834;28;20041;-75
2022/06/29 11:40:28;;;;;;;5.68;2.58;;;;;;;25.51;35.88;94024.69;4976363;28;20031;-74
2022/06/29 11:43:10;;;;;;;3.05;2.28;;;;;;;25.50;37.08;94023.13;4977768;28;20049;-74
2022/06/29 11:45:56;;;;;;;2.35;2.05;;;;;;;25.62;35.25;94014.44;4976118;28;20030;-74
2022/06/29 11:48:22;;;;;;;2.60;2.00;;;;;;;25.70;35.65;94013.22;4977970;28;20035;-74
2022/06/29 11:50:51;;;;;;;2.67;1.83;;;;;;;25.81;34.75;94017.78;4976762;28;20043;-74